Time;durP1;ratioP1;P1;durP2;ratioP2;P2;SDS_P1;SDS_P2;PMS_P1;PMS_P2;Temp;Humidity;BMP_temperature;BMP_pressure;BME280_temperature;BME280_humidity;BME280_pressure;Samples;Min_cycle;Max_cycle;Signal;HPM_P1;HPM_P2
2023/09/05 00:01:57;;;;;;;3.00;2.80;;;13.40;99.90;;;;;;5027573;28;20045;-61
2023/09/05 00:04:22;;;;;;;2.88;2.30;;;13.50;99.90;;;;;;5023002;28;20044;-60
2023/09/05 00:06:48;;;;;;;2.83;2.03;;;13.50;99.90;;;;;;5026298;28;20045;-57
2023/09/05 00:09:15;;;;;;;2.40;2.13;;;13.50;99.90;;;;;;5028479;28;20053;-60
2023/09/05 00:11:40;;;;;;;2.42;2.22;;;13.40;99.90;;;;;;5026908;28;20045;-59
2023/09/05 00:14:06;;;;;;;3.40;2.03;;;13.40;99.90;;;;;;5027817;28;20117;-60
2023/09/05 00:16:32;;;;;;;1.90;1.63;;;13.30;99.90;;;;;;5022737;28;20026;-58
2023/09/05 00:18:57;;;;;;;1.90;1.70;;;13.30;99.90;;;;;;5025724;28;20121;-57
2023/09/05 00:21:23;;;;;;;1.52;1.40;;;13.10;99.90;;;;;;5031266;28;20033;-60
2023/09/05 00:23:49;;;;;;;3.88;1.88;;;13.10;99.90;;;;;;5022957;28;20378;-58
2023/09/05 00:26:14;;;;;;;4.43;2.15;;;13.10;99.90;;;;;;5022021;28;20425;-58
2023/09/05 00:28:44;;;;;;;2.38;1.90;;;13.10;99.90;;;;;;5029520;28;20040;-58
2023/09/05 00:31:14;;;;;;;166.70;71.55;;;13.10;99.90;;;;;;5024439;28;20111;-58
2023/09/05 00:33:39;;;;;;;1.92;1.65;;;13.10;99.90;;;;;;5027292;28;20032;-60
2023/09/05 00:36:05;;;;;;;4.80;2.40;;;13.20;99.90;;;;;;5028086;28;20033;-61
2023/09/05 00:38:33;;;;;;;1.95;1.75;;;13.20;99.90;;;;;;5025730;28;20037;-60
2023/09/05 00:41:00;;;;;;;2.90;2.20;;;13.20;99.90;;;;;;5024240;28;20051;-58
2023/09/05 00:43:26;;;;;;;4.50;1.90;;;13.20;99.90;;;;;;5026366;28;20084;-57
2023/09/05 00:45:55;;;;;;;2.83;2.63;;;13.20;99.90;;;;;;5026791;28;20029;-58
2023/09/05 00:48:27;;;;;;;3.47;2.63;;;13.20;99.90;;;;;;5026602;28;20393;-58
2023/09/05 00:50:56;;;;;;;2.13;1.98;;;13.10;99.90;;;;;;5022380;28;20108;-59
2023/09/05 00:53:24;;;;;;;1.77;1.63;;;13.10;99.90;;;;;;5027118;28;20033;-60
2023/09/05 00:55:51;;;;;;;3.60;2.50;;;13.00;99.90;;;;;;5025715;28;20110;-59
2023/09/05 00:58:17;;;;;;;1.90;1.80;;;13.00;99.90;;;;;;5027825;28;20028;-60
2023/09/05 01:00:42;;;;;;;2.33;1.80;;;13.00;99.90;;;;;;5027985;28;20115;-60
2023/09/05 01:03:08;;;;;;;2.08;1.88;;;12.90;99.90;;;;;;5028364;28;20151;-60
2023/09/05 01:05:36;;;;;;;3.27;1.80;;;12.90;99.90;;;;;;5026475;28;20490;-61
2023/09/05 01:08:15;;;;;;;1.83;1.70;;;12.80;99.90;;;;;;5021188;28;20251;-60
2023/09/05 01:11:08;;;;;;;2.03;1.80;;;12.80;99.90;;;;;;5026785;28;20145;-61
2023/09/05 01:13:37;;;;;;;3.05;1.88;;;12.70;99.90;;;;;;5021616;28;20030;-60
2023/09/05 01:16:03;;;;;;;2.47;1.95;;;12.70;99.90;;;;;;5025442;28;20034;-60
2023/09/05 01:18:34;;;;;;;968.75;175.00;;;12.60;99.90;;;;;;5025358;28;20030;-60
2023/09/05 01:21:15;;;;;;;9.45;9.25;;;12.50;99.90;;;;;;5026192;28;20091;-61
2023/09/05 01:23:49;;;;;;;20.45;19.83;;;12.40;99.90;;;;;;5030449;28;20506;-60
2023/09/05 01:26:16;;;;;;;204.40;79.05;;;12.40;99.90;;;;;;5025112;28;20037;-60
2023/09/05 01:28:44;;;;;;;1999.90;999.90;;;12.40;99.90;;;;;;5033364;28;20021;-60
2023/09/05 01:31:11;;;;;;;340.50;142.05;;;12.40;99.90;;;;;;5020858;28;20022;-60
2023/09/05 01:33:38;;;;;;;0.82;0.80;;;12.40;99.90;;;;;;5021562;28;20026;-58
2023/09/05 01:36:05;;;;;;;0.90;0.88;;;12.40;99.90;;;;;;5034123;28;20093;-61
2023/09/05 01:38:30;;;;;;;0.70;0.70;;;12.30;99.90;;;;;;5027905;28;20025;-61
2023/09/05 01:40:56;;;;;;;1.15;0.90;;;12.30;99.90;;;;;;5018408;28;20029;-58
2023/09/05 01:43:21;;;;;;;1999.90;999.90;;;12.30;99.90;;;;;;5025659;28;20030;-59
2023/09/05 01:45:47;;;;;;;77.50;4.93;;;12.30;99.90;;;;;;5019191;28;20130;-58
2023/09/05 01:48:13;;;;;;;0.80;0.60;;;12.30;99.90;;;;;;5027057;28;20030;-60
2023/09/05 01:50:38;;;;;;;1.17;1.17;;;12.30;99.90;;;;;;5025598;28;20029;-60
2023/09/05 01:53:04;;;;;;;0.80;0.80;;;12.30;99.90;;;;;;5041763;28;20436;-61
2023/09/05 01:55:30;;;;;;;1999.90;999.90;;;12.30;99.90;;;;;;5026931;28;20444;-60
2023/09/05 01:57:55;;;;;;;3.28;1.20;;;12.30;99.90;;;;;;5022000;28;20084;-61
2023/09/05 02:00:21;;;;;;;1.30;1.15;;;12.30;99.90;;;;;;5025682;28;20088;-60
2023/09/05 02:02:47;;;;;;;1.63;1.20;;;12.20;99.90;;;;;;5024350;28;20071;-60
2023/09/05 02:05:12;;;;;;;1.45;1.35;;;12.20;99.90;;;;;;5024104;28;20032;-60
2023/09/05 02:07:38;;;;;;;2.47;1.08;;;12.20;99.90;;;;;;5020451;28;20072;-61
2023/09/05 02:10:06;;;;;;;1.00;1.00;;;12.20;99.90;;;;;;5028978;28;20044;-60
2023/09/05 02:12:32;;;;;;;1.05;0.95;;;12.30;99.90;;;;;;5029002;28;20053;-60
2023/09/05 02:15:00;;;;;;;1999.90;999.90;;;12.20;99.90;;;;;;5026969;28;20052;-60
2023/09/05 02:17:30;;;;;;;1999.90;999.90;;;12.20;99.90;;;;;;5026453;28;20484;-58
2023/09/05 02:19:59;;;;;;;1999.90;999.90;;;12.20;99.90;;;;;;5027286;28;20604;-60
2023/09/05 02:22:24;;;;;;;1999.90;999.90;;;12.10;99.90;;;;;;5026274;28;20041;-60
2023/09/05 02:24:50;;;;;;;1999.90;999.90;;;12.10;99.90;;;;;;5027010;28;20032;-60
2023/09/05 02:27:16;;;;;;;1999.90;999.90;;;12.00;99.90;;;;;;5022390;28;20113;-60
2023/09/05 02:29:41;;;;;;;1999.90;999.90;;;12.00;99.90;;;;;;5026345;28;20458;-62
2023/09/05 02:32:07;;;;;;;1999.90;999.90;;;12.00;99.90;;;;;;5027443;28;20038;-60
2023/09/05 02:34:33;;;;;;;1999.90;999.90;;;12.00;99.90;;;;;;5025263;28;20149;-60
2023/09/05 02:37:00;;;;;;;1999.90;999.90;;;11.90;99.90;;;;;;5016427;28;20026;-60
2023/09/05 02:39:27;;;;;;;1999.90;999.90;;;11.90;99.90;;;;;;5025714;28;20125;-60
2023/09/05 02:41:53;;;;;;;1999.90;999.90;;;11.90;99.90;;;;;;5023382;28;20009;-61
2023/09/05 02:44:18;;;;;;;1999.90;999.90;;;11.90;99.90;;;;;;5027360;28;20068;-60
2023/09/05 02:46:45;;;;;;;1999.90;999.90;;;11.90;99.90;;;;;;5026578;28;20038;-59
2023/09/05 02:49:10;;;;;;;1999.90;999.90;;;11.90;99.90;;;;;;5025702;28;20041;-60
2023/09/05 02:51:36;;;;;;;46.97;11.88;;;11.90;99.90;;;;;;5028950;28;20365;-61
2023/09/05 02:54:02;;;;;;;535.25;273.77;;;11.90;99.90;;;;;;5029502;28;20060;-60
2023/09/05 02:56:27;;;;;;;1999.90;999.90;;;11.90;99.90;;;;;;5010508;28;20042;-60
2023/09/05 02:58:53;;;;;;;30.52;19.15;;;11.90;99.90;;;;;;5011996;28;20029;-60
2023/09/05 03:01:19;;;;;;;2.88;2.78;;;11.90;99.90;;;;;;5027931;28;20034;-60
2023/09/05 03:03:44;;;;;;;1.35;0.90;;;11.80;99.90;;;;;;5025996;28;20048;-58
2023/09/05 03:06:11;;;;;;;15.32;14.93;;;11.70;99.90;;;;;;5027714;28;20088;-60
2023/09/05 03:08:37;;;;;;;1.48;1.48;;;11.70;99.90;;;;;;5029303;28;20053;-61
2023/09/05 03:11:02;;;;;;;0.38;0.38;;;11.60;99.90;;;;;;5025430;28;20460;-60
2023/09/05 03:13:28;;;;;;;0.40;0.40;;;11.60;99.90;;;;;;5027173;28;20428;-60
2023/09/05 03:15:54;;;;;;;0.40;0.40;;;11.50;99.90;;;;;;5026562;28;20029;-60
2023/09/05 03:18:19;;;;;;;0.40;0.40;;;11.50;99.90;;;;;;5024909;28;20108;-60
2023/09/05 03:20:46;;;;;;;0.30;0.30;;;11.50;99.90;;;;;;5021392;28;20455;-61
2023/09/05 03:23:15;;;;;;;0.40;0.40;;;11.50;99.90;;;;;;5020524;28;20018;-60
2023/09/05 03:25:40;;;;;;;0.38;0.30;;;11.50;99.90;;;;;;5025498;28;20033;-59
2023/09/05 03:28:07;;;;;;;0.30;0.30;;;11.60;99.90;;;;;;5025756;28;20033;-61
2023/09/05 03:30:32;;;;;;;0.43;0.43;;;11.50;99.90;;;;;;5026439;28;20124;-59
2023/09/05 03:32:58;;;;;;;0.30;0.30;;;11.60;99.90;;;;;;5024774;28;20112;-59
2023/09/05 03:35:23;;;;;;;0.40;0.40;;;11.50;99.90;;;;;;5025614;28;20081;-59
2023/09/05 03:37:49;;;;;;;6.63;0.50;;;11.60;99.90;;;;;;5027163;28;20057;-60
2023/09/05 03:40:15;;;;;;;1999.90;999.90;;;11.50;99.90;;;;;;5029080;28;20460;-60
2023/09/05 03:42:41;;;;;;;1999.90;999.90;;;11.50;99.90;;;;;;5025538;28;20044;-60
2023/09/05 03:45:08;;;;;;;1999.90;999.90;;;11.50;99.90;;;;;;5028251;28;20101;-60
2023/09/05 03:47:34;;;;;;;1999.90;999.90;;;11.40;99.90;;;;;;5024604;28;20033;-61
2023/09/05 03:49:59;;;;;;;1999.90;999.90;;;11.40;99.90;;;;;;5026329;28;20038;-60
2023/09/05 03:52:25;;;;;;;0.70;0.70;;;11.40;99.90;;;;;;5030237;28;20021;-60
2023/09/05 03:54:50;;;;;;;0.50;0.50;;;11.30;99.90;;;;;;5028196;28;20394;-60
2023/09/05 03:57:16;;;;;;;2.00;1.65;;;11.30;99.90;;;;;;5029708;28;20116;-60
2023/09/05 03:59:42;;;;;;;0.40;0.30;;;11.30;99.90;;;;;;5028570;28;20018;-59
2023/09/05 04:02:08;;;;;;;0.73;0.52;;;11.30;99.90;;;;;;5027108;28;20042;-60
2023/09/05 04:04:33;;;;;;;0.30;0.30;;;11.30;99.90;;;;;;5030471;28;20025;-60
2023/09/05 04:06:59;;;;;;;0.93;0.60;;;11.30;99.90;;;;;;5034210;28;20176;-60
2023/09/05 04:09:24;;;;;;;0.30;0.30;;;11.20;99.90;;;;;;5025983;28;20037;-61
2023/09/05 04:11:50;;;;;;;0.60;0.40;;;11.20;99.90;;;;;;5023407;28;20088;-61
2023/09/05 04:14:16;;;;;;;1999.90;999.90;;;11.20;99.90;;;;;;5023023;28;20033;-59
2023/09/05 04:16:42;;;;;;;1999.90;999.90;;;11.20;99.90;;;;;;5022970;28;20081;-60
2023/09/05 04:19:08;;;;;;;1999.90;999.90;;;11.20;99.90;;;;;;5025892;28;20036;-59
2023/09/05 04:21:35;;;;;;;1999.90;999.90;;;11.30;99.90;;;;;;5029073;28;20029;-60
2023/09/05 04:24:00;;;;;;;356.20;48.45;;;11.30;99.90;;;;;;5029642;28;20584;-60
2023/09/05 04:26:28;;;;;;;0.40;0.40;;;11.30;99.90;;;;;;5023977;28;20033;-60
2023/09/05 04:28:54;;;;;;;0.40;0.40;;;11.30;99.90;;;;;;5027472;28;20108;-60
2023/09/05 04:31:21;;;;;;;0.30;0.30;;;11.30;99.90;;;;;;5027778;28;20134;-61
2023/09/05 04:33:48;;;;;;;0.20;0.20;;;11.30;99.90;;;;;;5028310;28;20445;-60
2023/09/05 04:36:14;;;;;;;0.30;0.30;;;11.30;99.90;;;;;;5022596;28;20029;-61
2023/09/05 04:38:43;;;;;;;0.20;0.20;;;11.30;99.90;;;;;;5021108;28;20057;-60
2023/09/05 04:41:09;;;;;;;0.30;0.30;;;11.20;99.90;;;;;;5022281;28;20034;-60
2023/09/05 04:43:35;;;;;;;0.55;0.55;;;11.20;99.90;;;;;;5035137;28;20056;-58
2023/09/05 04:46:05;;;;;;;0.30;0.30;;;11.10;99.90;;;;;;5026041;28;20041;-60
2023/09/05 04:48:31;;;;;;;0.28;0.28;;;11.10;99.90;;;;;;5025834;28;20037;-59
2023/09/05 04:51:01;;;;;;;32.85;31.77;;;11.10;99.90;;;;;;5022088;28;20113;-58
2023/09/05 04:53:27;;;;;;;239.60;43.85;;;11.10;99.90;;;;;;5024404;28;20060;-58
2023/09/05 04:55:56;;;;;;;1326.78;374.73;;;11.00;99.90;;;;;;5028541;28;20443;-57
2023/09/05 04:58:22;;;;;;;1999.90;999.90;;;11.00;99.90;;;;;;5024735;28;20034;-59
2023/09/05 05:00:49;;;;;;;1513.55;762.85;;;11.00;99.90;;;;;;5025249;28;20022;-58
2023/09/05 05:03:15;;;;;;;867.78;93.95;;;11.00;99.90;;;;;;5027601;28;20022;-58
2023/09/05 05:05:41;;;;;;;295.30;112.78;;;10.90;99.90;;;;;;5031701;28;20059;-59
2023/09/05 05:08:06;;;;;;;71.68;61.75;;;11.00;99.90;;;;;;5027854;28;20033;-60
2023/09/05 05:10:33;;;;;;;3.03;2.58;;;11.00;99.90;;;;;;5028372;28;20033;-59
2023/09/05 05:13:00;;;;;;;2.47;2.28;;;11.00;99.90;;;;;;5025403;28;20033;-58
2023/09/05 05:15:25;;;;;;;4.07;2.40;;;11.00;99.90;;;;;;5029147;28;20457;-60
2023/09/05 05:17:51;;;;;;;3.22;2.38;;;11.10;99.90;;;;;;5024348;28;20224;-59
2023/09/05 05:20:18;;;;;;;9.32;8.45;;;11.10;99.90;;;;;;5025028;28;20037;-58
2023/09/05 05:22:44;;;;;;;60.50;58.25;;;11.20;99.90;;;;;;5023696;28;20402;-59
2023/09/05 05:25:10;;;;;;;34.92;33.78;;;11.20;99.90;;;;;;5022141;28;20042;-58
2023/09/05 05:27:35;;;;;;;1999.90;999.90;;;11.30;99.90;;;;;;5023719;28;20048;-59
2023/09/05 05:30:02;;;;;;;1999.90;999.90;;;11.30;99.90;;;;;;5021879;28;20049;-58
2023/09/05 05:32:28;;;;;;;1999.90;999.90;;;11.40;99.90;;;;;;5025682;28;20494;-56
2023/09/05 05:34:54;;;;;;;1999.90;999.90;;;11.40;99.90;;;;;;5025886;28;20025;-60
2023/09/05 05:37:19;;;;;;;1999.90;999.90;;;11.50;99.90;;;;;;5021734;28;20554;-60
2023/09/05 05:39:45;;;;;;;1999.90;999.90;;;11.60;99.90;;;;;;5024979;28;20181;-59
2023/09/05 05:42:11;;;;;;;1999.90;999.90;;;11.60;99.90;;;;;;5021881;28;20025;-61
2023/09/05 05:44:38;;;;;;;1999.90;999.90;;;11.70;99.90;;;;;;5027687;28;20032;-60
2023/09/05 05:47:03;;;;;;;1999.90;999.90;;;11.80;99.90;;;;;;5025169;28;20307;-61
2023/09/05 05:49:29;;;;;;;14.15;13.40;;;11.90;99.90;;;;;;5025944;28;20029;-59
2023/09/05 05:51:56;;;;;;;19.80;17.63;;;12.00;99.90;;;;;;5021442;28;20033;-60
2023/09/05 05:54:22;;;;;;;31.42;24.35;;;12.00;99.90;;;;;;5029788;28;20075;-60
2023/09/05 05:56:50;;;;;;;22.30;20.80;;;12.20;99.90;;;;;;5026487;28;20021;-61
2023/09/05 05:59:16;;;;;;;43.72;27.70;;;12.30;99.90;;;;;;5028361;28;20132;-60
2023/09/05 06:01:42;;;;;;;13.88;13.27;;;12.40;99.90;;;;;;5033286;28;20084;-60
2023/09/05 06:04:07;;;;;;;15.40;14.65;;;12.50;99.90;;;;;;5029733;28;20038;-60
2023/09/05 06:06:33;;;;;;;14.98;14.00;;;12.60;99.90;;;;;;5025563;28;20112;-60
2023/09/05 06:08:59;;;;;;;5.88;5.57;;;12.70;99.90;;;;;;5029084;28;20053;-60
2023/09/05 06:11:25;;;;;;;5.38;5.10;;;12.80;99.90;;;;;;5027204;28;20695;-58
2023/09/05 06:13:52;;;;;;;9.25;8.52;;;12.90;99.90;;;;;;5026207;28;20057;-60
2023/09/05 06:16:18;;;;;;;4.97;4.68;;;13.00;99.90;;;;;;5020915;28;20498;-60
2023/09/05 06:18:44;;;;;;;5.68;5.38;;;13.10;99.90;;;;;;5027631;28;20038;-59
2023/09/05 06:21:10;;;;;;;4.70;4.40;;;13.20;99.90;;;;;;5029519;28;20104;-60
2023/09/05 06:23:35;;;;;;;6.95;6.45;;;13.30;99.90;;;;;;5031624;28;20254;-61
2023/09/05 06:26:01;;;;;;;4.38;4.07;;;13.40;99.90;;;;;;5030661;28;20037;-61
2023/09/05 06:28:27;;;;;;;6.57;6.22;;;13.50;99.90;;;;;;5032677;28;20033;-60
2023/09/05 06:30:57;;;;;;;225.82;176.60;;;13.60;99.90;;;;;;5028380;28;20350;-60
2023/09/05 06:33:23;;;;;;;2.50;2.13;;;13.70;99.90;;;;;;5030006;28;20119;-60
2023/09/05 06:35:49;;;;;;;4.22;2.47;;;13.80;99.90;;;;;;5031436;28;20092;-61
2023/09/05 06:38:15;;;;;;;4.40;2.35;;;13.90;99.90;;;;;;5027139;28;20446;-60
2023/09/05 06:40:40;;;;;;;3.08;1.90;;;14.00;99.90;;;;;;5025808;28;20121;-60
2023/09/05 06:43:09;;;;;;;2.50;1.92;;;14.10;99.90;;;;;;5027980;28;20033;-59
2023/09/05 06:45:35;;;;;;;1999.90;999.90;;;14.30;99.90;;;;;;5022391;28;20025;-60
2023/09/05 06:48:00;;;;;;;2.13;1.83;;;14.30;99.90;;;;;;5026912;28;20362;-60
2023/09/05 06:50:26;;;;;;;2.88;1.90;;;14.50;99.90;;;;;;5022953;28;20573;-60
2023/09/05 06:52:52;;;;;;;2.97;1.50;;;14.60;99.90;;;;;;5028761;28;20378;-60
2023/09/05 06:55:18;;;;;;;2.72;1.98;;;14.70;99.90;;;;;;5030302;28;20033;-60
2023/09/05 06:57:43;;;;;;;3.17;1.83;;;14.80;99.90;;;;;;5024855;28;20094;-61
2023/09/05 07:00:10;;;;;;;3.17;2.00;;;14.90;99.90;;;;;;5036659;28;20024;-59
2023/09/05 07:02:36;;;;;;;4.57;2.58;;;15.00;99.90;;;;;;5030312;28;20034;-59
2023/09/05 07:05:01;;;;;;;2.28;1.80;;;15.20;99.90;;;;;;5033944;28;20405;-59
2023/09/05 07:07:27;;;;;;;2.13;1.90;;;15.30;99.90;;;;;;5023306;28;20029;-57
2023/09/05 07:09:53;;;;;;;2.08;1.80;;;15.40;99.90;;;;;;5024913;28;20080;-60
2023/09/05 07:12:19;;;;;;;2.42;1.90;;;15.60;99.90;;;;;;5033794;28;20041;-59
2023/09/05 07:14:45;;;;;;;1.60;1.50;;;15.80;99.90;;;;;;5035132;28;20030;-60
2023/09/05 07:17:11;;;;;;;2.08;1.83;;;15.90;99.90;;;;;;5029241;28;20540;-60
2023/09/05 07:19:37;;;;;;;2.50;1.60;;;16.10;99.90;;;;;;5027709;28;20041;-61
2023/09/05 07:22:04;;;;;;;3.60;1.85;;;16.30;99.90;;;;;;5030245;28;20493;-62
2023/09/05 07:24:30;;;;;;;1.98;1.52;;;16.40;99.90;;;;;;5027875;28;20022;-58
2023/09/05 07:26:55;;;;;;;3.25;1.55;;;16.60;99.90;;;;;;5026573;28;20045;-58
2023/09/05 07:29:23;;;;;;;1.60;1.40;;;16.70;99.90;;;;;;5028490;28;20084;-59
2023/09/05 07:31:50;;;;;;;1.83;1.30;;;16.80;99.90;;;;;;5024497;28;20104;-58
2023/09/05 07:34:15;;;;;;;1.73;1.45;;;16.90;99.90;;;;;;5023799;28;20028;-57
2023/09/05 07:36:41;;;;;;;1.55;1.20;;;17.10;99.90;;;;;;5024186;28;20029;-57
2023/09/05 07:39:09;;;;;;;2.47;1.50;;;17.30;99.90;;;;;;5026423;28;20437;-58
2023/09/05 07:41:35;;;;;;;1.95;1.20;;;17.50;99.90;;;;;;5026644;28;20037;-59
2023/09/05 07:44:02;;;;;;;1.90;1.10;;;17.70;99.90;;;;;;5024703;28;20099;-59
2023/09/05 07:46:27;;;;;;;2.92;2.45;;;17.80;99.90;;;;;;5026016;28;20033;-58
2023/09/05 07:48:53;;;;;;;1.63;1.02;;;17.90;99.90;;;;;;5027137;28;20540;-57
2023/09/05 07:51:22;;;;;;;1.60;1.00;;;18.10;99.90;;;;;;5028869;28;20041;-59
2023/09/05 07:53:50;;;;;;;3.22;1.08;;;18.40;99.90;;;;;;5024791;28;20433;-58
2023/09/05 07:56:16;;;;;;;1.77;1.10;;;18.60;99.90;;;;;;5025612;28;20057;-57
2023/09/05 07:58:41;;;;;;;2.28;1.27;;;18.70;99.90;;;;;;5030545;28;20506;-60
2023/09/05 08:01:09;;;;;;;5.38;1.42;;;18.80;99.90;;;;;;5027652;28;20030;-58
2023/09/05 08:03:38;;;;;;;2.15;1.48;;;19.10;99.90;;;;;;5029333;28;20029;-56
2023/09/05 08:06:04;;;;;;;1.98;1.20;;;19.10;99.90;;;;;;5027521;28;20037;-56
2023/09/05 08:08:31;;;;;;;1.50;1.40;;;19.10;99.90;;;;;;5028586;28;20021;-57
2023/09/05 08:10:56;;;;;;;2.40;1.40;;;19.00;99.90;;;;;;5025834;28;20040;-58
2023/09/05 08:13:22;;;;;;;1.55;1.40;;;19.20;99.90;;;;;;5029489;28;20021;-58
2023/09/05 08:15:50;;;;;;;2.08;1.40;;;19.50;99.90;;;;;;5029152;28;20109;-57
2023/09/05 08:18:16;;;;;;;3.33;1.20;;;19.50;99.90;;;;;;5026543;28;20808;-58
2023/09/05 08:20:46;;;;;;;1.73;1.30;;;19.60;99.90;;;;;;5026438;28;20555;-59
2023/09/05 08:23:12;;;;;;;1.85;1.65;;;19.70;99.90;;;;;;5026968;28;20025;-57
2023/09/05 08:25:38;;;;;;;1.60;1.10;;;19.80;99.90;;;;;;5025082;28;20036;-59
2023/09/05 08:28:04;;;;;;;1.15;0.90;;;19.80;99.90;;;;;;5027513;28;20815;-59
2023/09/05 08:30:30;;;;;;;2.30;1.00;;;19.70;99.90;;;;;;5020190;28;20557;-56
2023/09/05 08:32:57;;;;;;;3.17;1.20;;;19.80;99.90;;;;;;5029809;28;20069;-58
2023/09/05 08:35:23;;;;;;;1.85;1.40;;;20.00;99.90;;;;;;5017454;28;20033;-60
2023/09/05 08:37:48;;;;;;;1.10;1.00;;;20.00;99.90;;;;;;5018543;28;20044;-60
2023/09/05 08:40:15;;;;;;;1.65;1.55;;;20.00;99.90;;;;;;5025140;28;20037;-60
2023/09/05 08:42:42;;;;;;;847.50;123.53;;;20.20;99.90;;;;;;5018454;28;20056;-59
2023/09/05 08:45:15;;;;;;;114.78;106.88;;;20.20;99.90;;;;;;5019532;28;20041;-59
2023/09/05 08:47:41;;;;;;;1.30;0.80;;;20.40;99.90;;;;;;5015583;28;20036;-59
2023/09/05 08:50:08;;;;;;;1.05;0.90;;;20.50;99.90;;;;;;5019663;28;20394;-59
2023/09/05 08:52:37;;;;;;;1.75;1.00;;;20.60;99.90;;;;;;5023698;28;20026;-59
2023/09/05 08:55:03;;;;;;;1.42;1.05;;;20.60;99.90;;;;;;5022258;28;20068;-58
2023/09/05 08:57:31;;;;;;;1.20;1.00;;;20.70;99.90;;;;;;5024620;28;20030;-59
2023/09/05 08:59:57;;;;;;;1.77;1.15;;;20.80;99.90;;;;;;5025192;28;20496;-59
2023/09/05 09:02:23;;;;;;;1.08;0.98;;;20.80;99.90;;;;;;5025611;28;20034;-57
2023/09/05 09:04:58;;;;;;;1.85;1.10;;;20.90;99.90;;;;;;5009336;28;20029;-59
2023/09/05 09:07:27;;;;;;;3.78;1.20;;;21.00;99.90;;;;;;5026712;28;20041;-57
2023/09/05 09:09:56;;;;;;;1.17;1.05;;;21.30;99.90;;;;;;5023530;28;20028;-59
2023/09/05 09:12:31;;;;;;;1.20;1.10;;;21.60;99.90;;;;;;5005492;28;20029;-58
2023/09/05 09:15:11;;;;;;;1.00;0.90;;;21.80;99.90;;;;;;5030874;28;20022;-59
2023/09/05 09:17:39;;;;;;;1.17;0.85;;;22.10;99.90;;;;;;5020637;28;20029;-60
2023/09/05 09:20:06;;;;;;;1.60;0.90;;;22.30;99.90;;;;;;5024995;28;20327;-60
2023/09/05 09:22:32;;;;;;;2.60;1.05;;;22.40;99.90;;;;;;5022637;28;20086;-59
2023/09/05 09:24:57;;;;;;;1.38;1.00;;;22.70;99.90;;;;;;5027766;28;20042;-59
2023/09/05 09:27:23;;;;;;;1.40;1.10;;;22.90;99.90;;;;;;5023809;28;20108;-59
2023/09/05 09:29:56;;;;;;;1.30;0.80;;;23.10;99.90;;;;;;5026306;28;20116;-59
2023/09/05 09:32:24;;;;;;;1.30;0.85;;;23.20;99.90;;;;;;5023533;28;20033;-59
2023/09/05 09:34:51;;;;;;;1.20;1.00;;;23.30;99.90;;;;;;5013237;28;20030;-59
2023/09/05 09:37:26;;;;;;;0.80;0.80;;;23.50;99.90;;;;;;5023140;28;20544;-58
2023/09/05 09:40:05;;;;;;;1.17;0.95;;;23.70;99.90;;;;;;5025875;28;20033;-60
2023/09/05 09:42:30;;;;;;;3.78;1.17;;;23.80;99.90;;;;;;5029383;28;20428;-58
2023/09/05 09:44:57;;;;;;;1.77;1.02;;;23.70;99.90;;;;;;5026230;28;20065;-59
2023/09/05 09:47:24;;;;;;;1.10;0.90;;;23.80;99.90;;;;;;5024528;28;20034;-57
2023/09/05 09:49:51;;;;;;;1.10;1.00;;;23.70;99.90;;;;;;5023340;28;20087;-60
2023/09/05 09:52:21;;;;;;;1.02;0.90;;;23.70;99.90;;;;;;5025333;28;20025;-60
2023/09/05 09:54:50;;;;;;;1.67;1.50;;;23.70;99.90;;;;;;5024941;28;20040;-57
2023/09/05 09:57:24;;;;;;;1.52;0.95;;;23.70;99.90;;;;;;5025872;28;20044;-57
2023/09/05 09:59:58;;;;;;;0.95;0.80;;;23.70;99.90;;;;;;5027889;28;20393;-58
2023/09/05 10:02:25;;;;;;;1.75;1.40;;;23.70;99.90;;;;;;5027825;28;20060;-59
2023/09/05 10:04:51;;;;;;;0.90;0.85;;;23.70;99.90;;;;;;5022517;28;20112;-58
2023/09/05 10:07:19;;;;;;;1.13;0.90;;;23.70;99.90;;;;;;5029327;28;20506;-58
2023/09/05 10:09:45;;;;;;;3.28;0.98;;;23.80;99.90;;;;;;5028539;28;20549;-57
2023/09/05 10:12:12;;;;;;;2.45;1.20;;;23.90;99.90;;;;;;5028175;28;20228;-58
2023/09/05 10:14:40;;;;;;;1.23;0.88;;;23.90;99.90;;;;;;5022792;28;20061;-59
2023/09/05 10:17:06;;;;;;;1.27;0.90;;;24.10;99.90;;;;;;5018648;28;20025;-59
2023/09/05 10:19:32;;;;;;;1.17;1.00;;;24.10;99.90;;;;;;5025584;28;20488;-58
2023/09/05 10:21:58;;;;;;;0.88;0.88;;;24.10;99.90;;;;;;5024028;28;20033;-58
2023/09/05 10:24:34;;;;;;;1.55;0.82;;;24.00;99.90;;;;;;5026838;28;20053;-59
2023/09/05 10:27:00;;;;;;;4.40;2.22;;;24.10;99.90;;;;;;5027656;28;20775;-57
2023/09/05 10:29:46;;;;;;;1.20;0.90;;;24.20;99.90;;;;;;5029240;28;20116;-57
2023/09/05 10:32:18;;;;;;;1.30;0.90;;;24.20;99.90;;;;;;5032206;28;20029;-58
2023/09/05 10:34:58;;;;;;;1.50;1.00;;;24.30;99.90;;;;;;5029037;28;20491;-60
2023/09/05 10:37:38;;;;;;;0.93;0.80;;;24.40;99.90;;;;;;5032244;28;20026;-57
2023/09/05 10:40:08;;;;;;;2.47;1.08;;;24.60;99.90;;;;;;5028429;28;20823;-59
2023/09/05 10:42:40;;;;;;;0.90;0.90;;;24.70;99.90;;;;;;5031500;28;20048;-59
2023/09/05 10:45:21;;;;;;;1.98;0.90;;;24.70;99.90;;;;;;5027795;28;20014;-59
2023/09/05 10:47:49;;;;;;;1.30;0.93;;;24.80;98.80;;;;;;5027742;28;20118;-58
2023/09/05 10:50:19;;;;;;;1.00;0.80;;;24.80;91.40;;;;;;5030363;28;20406;-57
2023/09/05 10:52:49;;;;;;;1.33;0.83;;;24.80;98.10;;;;;;5028722;28;20021;-59
2023/09/05 10:55:29;;;;;;;1.35;0.77;;;24.70;98.20;;;;;;5031985;28;20140;-59
2023/09/05 10:57:56;;;;;;;0.82;0.60;;;24.80;95.50;;;;;;5025759;28;20026;-57
2023/09/05 11:00:37;;;;;;;0.93;0.75;;;24.80;88.70;;;;;;5030629;28;20104;-60
2023/09/05 11:03:14;;;;;;;1.10;0.90;;;24.70;89.10;;;;;;5026445;28;20083;-59
2023/09/05 11:05:41;;;;;;;1.20;0.85;;;24.70;95.30;;;;;;5027695;28;20431;-59
2023/09/05 11:08:23;;;;;;;2.15;0.80;;;24.80;89.40;;;;;;5035613;28;20048;-60
2023/09/05 11:10:53;;;;;;;1.17;0.90;;;24.80;86.90;;;;;;5030521;28;20038;-59
2023/09/05 11:13:19;;;;;;;1.42;0.70;;;24.80;89.40;;;;;;5020742;28;20038;-59
2023/09/05 11:15:44;;;;;;;0.80;0.80;;;24.90;87.00;;;;;;5022883;28;20113;-58
2023/09/05 11:18:12;;;;;;;1.20;0.73;;;24.90;90.90;;;;;;5021183;28;20032;-58
2023/09/05 11:20:39;;;;;;;1.88;1.05;;;24.90;90.70;;;;;;5025491;28;20033;-56
2023/09/05 11:23:12;;;;;;;1.08;0.80;;;24.90;93.40;;;;;;5027298;28;20429;-58
2023/09/05 11:25:46;;;;;;;2.10;0.60;;;25.10;90.60;;;;;;5030133;28;20563;-58
2023/09/05 11:28:12;;;;;;;0.80;0.80;;;25.10;90.30;;;;;;5027965;28;20494;-59
2023/09/05 11:30:40;;;;;;;1.05;0.80;;;25.20;85.80;;;;;;5029078;28;20034;-59
2023/09/05 11:33:16;;;;;;;1.48;0.80;;;25.30;85.20;;;;;;5031457;28;20028;-59
2023/09/05 11:35:45;;;;;;;1.42;0.80;;;25.40;85.60;;;;;;5008619;28;20053;-58
2023/09/05 11:38:12;;;;;;;1.90;0.82;;;25.40;81.60;;;;;;5004525;28;20038;-59
2023/09/05 11:40:41;;;;;;;0.80;0.80;;;25.50;83.30;;;;;;5006010;28;20036;-58
2023/09/05 11:43:09;;;;;;;0.93;0.70;;;25.60;79.90;;;;;;5008544;28;20047;-61
2023/09/05 11:45:37;;;;;;;1.05;0.63;;;25.60;78.20;;;;;;5027954;28;20076;-58
2023/09/05 11:48:06;;;;;;;1.15;0.75;;;25.60;77.50;;;;;;5024641;28;20067;-58
2023/09/05 11:50:32;;;;;;;0.68;0.50;;;25.70;80.90;;;;;;5023767;28;20038;-56
2023/09/05 11:52:59;;;;;;;0.65;0.63;;;25.60;79.40;;;;;;5020791;28;20083;-58
2023/09/05 11:55:26;;;;;;;0.85;0.75;;;25.70;85.70;;;;;;5028158;28;20577;-60
2023/09/05 11:57:53;;;;;;;3.55;0.65;;;25.80;82.70;;;;;;5023128;28;20128;-59
2023/09/05 12:00:20;;;;;;;0.70;0.70;;;25.90;81.80;;;;;;5024129;28;20497;-58
2023/09/05 12:02:46;;;;;;;6.07;0.80;;;26.00;76.90;;;;;;5022238;28;20018;-57
2023/09/05 12:05:12;;;;;;;1.33;0.80;;;26.10;78.80;;;;;;5028135;28;20105;-57
2023/09/05 12:07:38;;;;;;;2.50;0.68;;;26.20;79.80;;;;;;5028738;28;20033;-59
2023/09/05 12:10:04;;;;;;;0.60;0.60;;;26.20;80.50;;;;;;5029028;28;20038;-58
2023/09/05 12:12:30;;;;;;;1.02;0.60;;;26.30;83.60;;;;;;5026159;28;20022;-58
2023/09/05 12:14:58;;;;;;;1.42;0.80;;;26.30;77.80;;;;;;5025184;28;20025;-58
2023/09/05 12:17:26;;;;;;;4.22;1.02;;;26.30;88.00;;;;;;5027183;28;20355;-57
2023/09/05 12:19:54;;;;;;;0.90;0.70;;;26.40;83.60;;;;;;5025396;28;20048;-59
2023/09/05 12:22:27;;;;;;;0.90;0.80;;;26.50;87.40;;;;;;5027333;28;20021;-58
2023/09/05 12:25:14;;;;;;;0.75;0.70;;;26.50;75.80;;;;;;5028343;28;20029;-60
2023/09/05 12:27:42;;;;;;;2.20;0.80;;;26.50;72.90;;;;;;5025716;28;20032;-59
2023/09/05 12:30:09;;;;;;;0.70;0.70;;;26.40;74.80;;;;;;5032562;28;20025;-59
2023/09/05 12:32:37;;;;;;;1.73;1.00;;;26.30;79.60;;;;;;5027392;28;20707;-61
2023/09/05 12:35:03;;;;;;;1.33;0.70;;;26.30;74.50;;;;;;5027784;28;20067;-59
2023/09/05 12:37:29;;;;;;;1.08;0.90;;;26.30;80.70;;;;;;5028528;28;20081;-59
2023/09/05 12:39:56;;;;;;;1.48;0.80;;;26.30;78.60;;;;;;5027652;28;20629;-60